createdAt,value
2017-09-20T03:32:13.682Z,18.33
2017-09-20T03:34:41.307Z,17.40
2017-09-20T03:37:08.885Z,16.75
2017-09-20T03:39:36.475Z,20.60
2017-09-20T03:42:05.062Z,23.50
2017-09-20T03:44:33.410Z,17.92
2017-09-20T03:47:01.103Z,13.62
2017-09-20T03:49:29.497Z,13.55
2017-09-20T03:51:57.140Z,16.83
2017-09-20T03:54:25.514Z,16.73
2017-09-20T03:56:53.993Z,16.42
2017-09-20T03:59:22.369Z,16.75
2017-09-20T04:01:50.718Z,18.25
2017-09-20T04:04:18.514Z,15.80
2017-09-20T04:06:46.890Z,16.48
2017-09-20T04:09:15.262Z,16.12
2017-09-20T04:11:43.745Z,18.70
2017-09-20T04:14:12.098Z,20.00
2017-09-20T04:16:39.890Z,20.12
2017-09-20T04:19:08.237Z,20.67
2017-09-20T04:21:35.820Z,19.87
2017-09-20T04:24:04.511Z,22.48
2017-09-20T04:26:32.861Z,17.30
2017-09-20T04:29:00.542Z,24.20
2017-09-20T04:31:28.941Z,19.83
2017-09-20T04:33:56.530Z,18.77
2017-09-20T04:36:24.138Z,19.87
2017-09-20T04:38:52.613Z,21.30
2017-09-20T04:41:20.962Z,20.23
2017-09-20T04:43:48.549Z,19.62
2017-09-20T04:46:16.965Z,25.37
2017-09-20T04:48:44.555Z,17.37
2017-09-20T04:51:12.150Z,25.90
2017-09-20T04:53:39.782Z,22.30
2017-09-20T04:56:07.370Z,24.15
2017-09-20T04:58:36.045Z,26.10
2017-09-20T05:01:04.425Z,31.55
2017-09-20T05:03:32.769Z,38.33
2017-09-20T05:06:00.373Z,39.30
2017-09-20T05:08:28.722Z,33.45
2017-09-20T05:10:56.346Z,25.15
2017-09-20T05:13:23.934Z,33.13
2017-09-20T05:15:51.522Z,36.42
2017-09-20T05:18:19.910Z,36.25
2017-09-20T05:20:47.557Z,30.15
2017-09-20T05:23:15.935Z,30.10
2017-09-20T05:25:44.445Z,36.42
2017-09-20T05:28:12.026Z,31.62
2017-09-20T05:30:39.611Z,30.75
2017-09-20T05:33:07.321Z,29.95
2017-09-20T05:35:35.001Z,36.72
2017-09-20T05:38:02.846Z,30.12
2017-09-20T05:40:31.289Z,34.38
2017-09-20T05:42:59.647Z,33.75
2017-09-20T05:45:27.233Z,16.58
2017-09-20T05:47:55.606Z,27.67
2017-09-20T05:50:23.954Z,18.58
2017-09-20T05:52:51.541Z,31.00
2017-09-20T05:55:20.125Z,21.00
2017-09-20T05:57:48.482Z,32.83
2017-09-20T06:00:16.078Z,39.35
2017-09-20T06:02:43.708Z,44.10
2017-09-20T06:05:11.293Z,39.13
2017-09-20T06:07:38.878Z,50.15
2017-09-20T06:10:06.526Z,46.80
2017-09-20T06:12:34.123Z,48.25
2017-09-20T06:15:01.708Z,50.83
2017-09-20T06:17:29.330Z,53.00
2017-09-20T06:19:56.913Z,53.55
2017-09-20T06:22:24.500Z,54.35
2017-09-20T06:24:52.998Z,54.75
2017-09-20T06:27:20.578Z,57.78
2017-09-20T06:29:48.163Z,61.33
2017-09-20T06:32:15.769Z,59.08
2017-09-20T06:34:43.358Z,61.85
2017-09-20T06:37:10.982Z,61.53
2017-09-20T06:39:38.585Z,63.28
2017-09-20T06:42:06.183Z,53.63
2017-09-20T06:44:34.570Z,62.05
2017-09-20T06:47:02.922Z,68.57
2017-09-20T06:49:30.511Z,59.33
2017-09-20T06:51:58.362Z,65.87
2017-09-20T06:54:26.726Z,69.20
2017-09-20T06:56:54.313Z,71.00
2017-09-20T06:59:22.163Z,67.90
2017-09-20T07:01:50.514Z,70.95
2017-09-20T07:04:18.097Z,68.53
2017-09-20T07:06:46.489Z,69.93
2017-09-20T07:09:14.075Z,77.30
2017-09-20T07:11:41.653Z,66.50
2017-09-20T07:14:09.262Z,69.62
2017-09-20T07:16:36.861Z,70.72
2017-09-20T07:19:04.482Z,69.32
2017-09-20T07:21:32.829Z,74.87
2017-09-20T07:24:00.416Z,77.85
2017-09-20T07:26:28.818Z,80.50
2017-09-20T07:28:56.406Z,76.30
2017-09-20T07:31:23.991Z,79.18
2017-09-20T07:33:51.637Z,89.68
2017-09-20T07:36:19.222Z,90.97
2017-09-20T07:38:47.570Z,88.20
2017-09-20T07:41:15.205Z,86.87
2017-09-20T07:43:42.786Z,94.78
2017-09-20T07:46:10.370Z,91.72
2017-09-20T07:48:38.954Z,84.40
2017-09-20T07:51:07.310Z,86.35
2017-09-20T07:53:36.722Z,88.72
2017-09-20T07:56:05.717Z,77.43
2017-09-20T07:58:34.065Z,94.65
2017-09-20T08:01:01.641Z,77.05
2017-09-20T08:03:31.273Z,85.57
2017-09-20T08:05:59.621Z,76.97
2017-09-20T08:08:27.207Z,84.55
2017-09-20T08:10:55.771Z,86.82
2017-09-20T08:13:23.361Z,81.68
2017-09-20T08:15:50.947Z,70.62
2017-09-20T08:18:18.805Z,77.43
2017-09-20T08:20:46.394Z,78.43
2017-09-20T08:23:13.978Z,71.07
2017-09-20T08:25:42.358Z,76.85
2017-09-20T08:28:10.711Z,80.30
2017-09-20T08:30:38.326Z,80.20
2017-09-20T08:33:05.910Z,83.18
2017-09-20T08:35:33.501Z,79.40
2017-09-20T08:38:01.133Z,77.72
2017-09-20T08:40:28.713Z,81.55
2017-09-20T08:42:56.304Z,86.15
2017-09-20T08:45:24.686Z,81.35
2017-09-20T08:47:52.282Z,85.07
2017-09-20T08:50:19.886Z,74.43
2017-09-20T08:52:48.261Z,77.12
2017-09-20T08:55:16.610Z,77.75
2017-09-20T08:57:44.198Z,82.20
2017-09-20T09:00:12.781Z,75.35
2017-09-20T09:02:41.131Z,77.62
2017-09-20T09:05:08.718Z,70.97
2017-09-20T09:07:37.281Z,82.93
2017-09-20T09:10:04.875Z,83.50
2017-09-20T09:12:32.466Z,82.05
2017-09-20T09:15:00.083Z,86.22
2017-09-20T09:17:28.482Z,77.12
2017-09-20T09:19:56.073Z,79.40
2017-09-20T09:22:23.658Z,73.90
2017-09-20T09:24:51.264Z,70.10
2017-09-20T09:27:18.846Z,75.78
2017-09-20T09:29:46.433Z,75.60
2017-09-20T09:32:14.314Z,88.93
2017-09-20T09:34:42.665Z,84.82
2017-09-20T09:37:10.250Z,78.22
2017-09-20T09:39:38.626Z,94.15
2017-09-20T09:42:06.979Z,81.43
2017-09-20T09:44:34.572Z,95.03
2017-09-20T09:47:02.185Z,85.45
2017-09-20T09:49:29.765Z,92.20
2017-09-20T09:51:57.346Z,88.22
2017-09-20T09:54:25.750Z,97.45
2017-09-20T09:56:53.338Z,105.37
2017-09-20T09:59:20.921Z,93.07
2017-09-20T10:01:48.810Z,81.05
2017-09-20T10:04:16.393Z,84.50
2017-09-20T10:06:43.981Z,78.95
2017-09-20T10:09:11.782Z,87.00
2017-09-20T10:11:40.134Z,73.28
2017-09-20T10:14:07.718Z,57.92
2017-09-20T10:16:36.302Z,65.35
2017-09-20T10:19:04.654Z,62.40
2017-09-20T10:21:32.245Z,51.25
2017-09-20T10:23:59.854Z,49.75
2017-09-20T10:26:27.446Z,40.85
2017-09-20T10:28:55.823Z,45.03
2017-09-20T10:31:24.174Z,45.50
2017-09-20T10:33:51.762Z,43.42
2017-09-20T10:36:20.159Z,45.88
2017-09-20T10:38:47.752Z,46.70
2017-09-20T10:41:15.335Z,34.42
2017-09-20T10:43:43.228Z,50.45
2017-09-20T10:46:11.579Z,43.42
2017-09-20T10:48:39.169Z,36.92
2017-09-20T10:51:06.825Z,41.95
2017-09-20T10:53:35.178Z,44.00
2017-09-20T10:56:02.811Z,40.65
2017-09-20T10:58:30.618Z,39.95
2017-09-20T11:00:58.980Z,40.70
2017-09-20T11:03:26.571Z,40.75
2017-09-20T11:05:54.215Z,34.10
2017-09-20T11:08:22.574Z,31.83
2017-09-20T11:13:26.258Z,36.95
2017-09-20T11:15:53.869Z,31.17
2017-09-20T11:18:22.245Z,27.25
2017-09-20T11:20:50.597Z,24.17
2017-09-20T11:23:18.194Z,23.87
2017-09-20T11:25:45.834Z,25.50
2017-09-20T11:28:14.251Z,26.65
2017-09-20T11:30:41.841Z,21.87
2017-09-20T11:33:09.466Z,34.45
2017-09-20T11:35:37.087Z,22.17
2017-09-20T11:38:05.495Z,25.00
2017-09-20T11:40:33.086Z,33.20
2017-09-20T11:43:00.675Z,25.03
2017-09-20T11:45:28.308Z,24.67
2017-09-20T11:47:55.907Z,22.95
2017-09-20T11:50:24.261Z,22.85
2017-09-20T11:52:51.877Z,18.55
2017-09-20T11:55:19.466Z,16.08
2017-09-20T11:57:47.274Z,17.00
2017-09-20T12:00:15.630Z,18.23
2017-09-20T12:02:43.222Z,16.90
2017-09-20T12:05:10.830Z,19.33
2017-09-20T12:07:38.422Z,15.18
2017-09-20T12:10:07.013Z,21.65
2017-09-20T12:12:34.601Z,13.38
2017-09-20T12:15:02.187Z,15.30
2017-09-20T12:17:29.990Z,14.98
2017-09-20T12:19:58.341Z,16.77
2017-09-20T12:22:25.929Z,15.02
2017-09-20T12:24:53.665Z,16.40
2017-09-20T12:27:21.259Z,14.48
2017-09-20T12:29:48.842Z,15.20
2017-09-20T12:32:16.465Z,14.30
2017-09-20T12:34:44.818Z,14.07
2017-09-20T12:37:12.407Z,12.30
2017-09-20T12:39:40.014Z,13.10
2017-09-20T12:42:07.606Z,15.30
2017-09-20T12:44:36.019Z,10.23
2017-09-20T12:47:03.609Z,15.52
2017-09-20T12:49:31.263Z,10.88
2017-09-20T12:51:59.897Z,15.15
2017-09-20T12:54:28.250Z,11.27
2017-09-20T12:56:55.843Z,16.92
2017-09-20T12:59:23.486Z,16.45
2017-09-20T13:01:51.846Z,17.55
2017-09-20T13:04:19.433Z,15.70
2017-09-20T13:06:47.037Z,14.45
2017-09-20T13:09:14.625Z,15.75
2017-09-20T13:11:42.262Z,13.20
2017-09-20T13:14:09.853Z,12.05
2017-09-20T13:16:37.441Z,13.07
2017-09-20T13:19:05.262Z,14.50
2017-09-20T13:21:32.866Z,15.50
2017-09-20T13:24:00.557Z,11.30
2017-09-20T13:26:28.350Z,14.17
2017-09-20T13:28:55.933Z,16.00
2017-09-20T13:31:24.282Z,10.27
2017-09-20T13:33:51.930Z,12.07
2017-09-20T13:36:20.321Z,11.57
2017-09-20T13:38:47.904Z,7.30
2017-09-20T13:41:16.281Z,8.87
2017-09-20T13:43:44.708Z,9.43
2017-09-20T13:46:12.305Z,10.83
2017-09-20T13:48:39.925Z,6.73
2017-09-20T13:51:07.510Z,6.90
2017-09-20T13:53:35.133Z,7.13
2017-09-20T13:56:02.717Z,6.00
2017-09-20T13:58:30.309Z,5.30
2017-09-20T14:00:58.890Z,7.40
2017-09-20T14:03:27.246Z,4.80
2017-09-20T14:05:54.834Z,4.27
2017-09-20T14:08:23.202Z,3.97
2017-09-20T14:10:52.042Z,3.43
2017-09-20T14:13:19.662Z,3.57
2017-09-20T14:15:48.010Z,8.80
2017-09-20T14:18:15.589Z,8.00
2017-09-20T14:20:43.970Z,6.70
2017-09-20T14:23:11.562Z,5.37
2017-09-20T14:25:39.138Z,5.50
2017-09-20T14:28:06.742Z,4.40
2017-09-20T14:35:08.421Z,5.70
2017-09-20T14:37:36.770Z,7.90
2017-09-20T14:40:05.043Z,15.53
2017-09-20T14:42:32.623Z,5.90
2017-09-20T14:45:01.022Z,6.85
2017-09-20T14:47:28.619Z,5.73
2017-09-20T14:49:56.201Z,6.97
2017-09-20T14:52:23.830Z,4.50
2017-09-20T14:54:51.414Z,8.13
2017-09-20T14:57:18.998Z,8.57
2017-09-20T14:59:46.842Z,6.80
2017-09-20T15:02:14.671Z,8.07
2017-09-20T15:04:43.202Z,7.05
2017-09-20T15:07:10.818Z,10.63
2017-09-20T15:09:38.414Z,7.90
2017-09-20T15:12:05.998Z,10.50
2017-09-20T15:14:34.390Z,6.43
2017-09-20T15:17:01.981Z,8.20
2017-09-20T15:19:29.573Z,8.18
2017-09-20T15:21:57.181Z,5.53
2017-09-20T15:24:24.773Z,7.90
2017-09-20T15:26:52.409Z,7.97
2017-09-20T15:29:20.001Z,7.47
2017-09-20T15:31:47.578Z,7.07
2017-09-20T15:34:15.975Z,9.68
2017-09-20T15:36:44.324Z,15.10
2017-09-20T15:39:11.923Z,19.33
2017-09-20T15:41:39.765Z,16.08
2017-09-20T15:44:08.114Z,13.15
2017-09-20T15:46:35.702Z,13.50
2017-09-20T15:49:04.127Z,19.17
2017-09-20T15:51:31.721Z,17.98
2017-09-20T15:53:59.303Z,10.95
2017-09-20T15:56:27.705Z,28.83
2017-09-20T15:58:55.290Z,14.73
2017-09-20T16:01:22.874Z,19.08
2017-09-20T16:03:50.758Z,17.20
2017-09-20T16:06:19.105Z,13.95
2017-09-20T16:08:46.694Z,9.25
2017-09-20T16:11:15.061Z,17.15
2017-09-20T16:13:42.671Z,14.73
2017-09-20T16:16:10.258Z,15.30
2017-09-20T16:18:37.841Z,14.35
2017-09-20T16:21:06.240Z,8.63
2017-09-20T16:23:33.822Z,11.27
2017-09-20T16:26:01.398Z,8.55
2017-09-20T16:28:29.201Z,13.25
2017-09-20T16:30:57.545Z,12.85
2017-09-20T16:33:25.142Z,9.38
2017-09-20T16:35:52.793Z,18.40
2017-09-20T16:38:21.147Z,10.75
2017-09-20T16:40:48.730Z,12.00
2017-09-20T16:43:17.110Z,19.50
2017-09-20T16:45:45.456Z,12.00
2017-09-20T16:48:13.062Z,12.77
2017-09-20T16:50:40.650Z,13.15
2017-09-20T16:53:08.290Z,20.23
2017-09-20T16:55:35.872Z,9.20
2017-09-20T16:58:03.454Z,13.30
2017-09-20T17:00:31.091Z,10.38
2017-09-20T17:02:58.674Z,10.70
2017-09-20T17:05:26.265Z,10.32
2017-09-20T17:07:54.638Z,14.85
2017-09-20T17:10:22.988Z,10.05
2017-09-20T17:12:50.783Z,14.05
2017-09-20T17:15:19.129Z,9.52
2017-09-20T17:17:46.710Z,8.88
2017-09-20T17:20:15.114Z,9.75
2017-09-20T17:22:42.698Z,9.50
2017-09-20T17:25:11.058Z,11.30
2017-09-20T17:27:38.690Z,11.25
2017-09-20T17:30:07.041Z,13.55
2017-09-20T17:32:34.630Z,13.57
2017-09-20T17:35:03.197Z,14.48
2017-09-20T17:37:30.781Z,16.30
2017-09-20T17:39:58.373Z,29.45
2017-09-20T17:42:26.018Z,29.10
2017-09-20T17:44:53.628Z,31.62
2017-09-20T17:47:21.218Z,11.93
2017-09-20T17:49:48.827Z,17.23
2017-09-20T17:52:16.478Z,8.63
2017-09-20T17:54:44.066Z,13.15
2017-09-20T17:57:11.649Z,11.88
2017-09-20T17:59:40.045Z,14.23
2017-09-20T18:02:07.625Z,14.60
2017-09-20T18:04:35.494Z,11.68
2017-09-20T18:07:03.127Z,12.90
2017-09-20T18:09:30.708Z,14.73
2017-09-20T18:11:58.290Z,16.98
2017-09-20T18:14:25.897Z,14.75
2017-09-20T18:16:53.673Z,15.98
2017-09-20T18:19:21.261Z,19.77
2017-09-20T18:21:48.846Z,18.33
2017-09-20T18:24:17.442Z,20.65
2017-09-20T18:26:45.794Z,20.75
2017-09-20T18:29:13.382Z,12.60
2017-09-20T18:31:41.785Z,15.07
2017-09-20T18:34:09.371Z,13.13
2017-09-20T18:36:36.957Z,21.87
2017-09-20T18:39:05.341Z,17.58
2017-09-20T18:41:33.694Z,15.00
2017-09-20T18:44:02.426Z,15.63
2017-09-20T18:46:30.058Z,15.88
2017-09-20T18:48:57.650Z,17.55
2017-09-20T18:51:25.242Z,15.32
2017-09-20T18:53:52.898Z,23.67
2017-09-20T18:56:20.495Z,35.30
2017-09-20T18:58:48.084Z,43.03
2017-09-20T19:01:15.934Z,27.87
2017-09-20T19:03:44.296Z,28.35
2017-09-20T19:06:11.886Z,24.87
2017-09-20T19:08:39.547Z,34.15
2017-09-20T19:11:07.134Z,23.50
2017-09-20T19:13:34.723Z,15.40
2017-09-20T19:16:02.390Z,15.93
2017-09-20T19:18:29.978Z,17.80
2017-09-20T19:20:57.578Z,15.70
2017-09-20T19:23:25.353Z,16.62
2017-09-20T19:25:52.942Z,19.12
2017-09-20T19:28:21.288Z,13.73
2017-09-20T19:30:48.893Z,15.60
2017-09-20T19:33:16.486Z,23.83
2017-09-20T19:35:44.070Z,13.00
2017-09-20T19:38:11.703Z,13.18
2017-09-20T19:40:39.298Z,14.70
2017-09-20T19:43:06.886Z,21.48
2017-09-20T19:45:35.278Z,9.68
2017-09-20T19:48:02.871Z,16.15
2017-09-20T19:50:30.454Z,12.45
2017-09-20T19:52:58.066Z,14.35
2017-09-20T19:55:25.662Z,15.65
2017-09-20T19:57:53.295Z,17.00
2017-09-20T20:00:20.879Z,18.17
2017-09-20T20:02:48.486Z,23.00
2017-09-20T20:05:16.138Z,21.83
2017-09-20T20:07:44.511Z,13.38
2017-09-20T20:10:12.861Z,17.12
2017-09-20T20:12:40.502Z,12.95
2017-09-20T20:15:08.087Z,9.00
2017-09-20T20:17:35.671Z,9.05
2017-09-20T20:20:03.324Z,51.13
2017-09-20T20:22:31.682Z,15.88
2017-09-20T20:24:59.266Z,9.13
2017-09-20T20:27:27.061Z,9.73
2017-09-20T20:29:54.651Z,14.82
2017-09-20T20:32:22.242Z,20.90
2017-09-20T20:34:50.718Z,46.45
2017-09-20T20:37:19.094Z,21.05
2017-09-20T20:39:47.449Z,17.95
2017-09-20T20:42:15.087Z,16.77
2017-09-20T20:44:42.674Z,12.25
2017-09-20T20:47:10.401Z,13.10
2017-09-20T20:49:38.113Z,14.07
2017-09-20T20:52:06.470Z,12.77
2017-09-20T20:54:34.049Z,12.65
2017-09-20T20:57:02.422Z,13.27
2017-09-20T20:59:30.778Z,17.80
2017-09-20T21:01:58.430Z,23.33
2017-09-20T21:04:26.027Z,26.23
2017-09-20T21:06:54.394Z,32.00
2017-09-20T21:09:22.786Z,37.83
2017-09-20T21:11:51.153Z,36.20
2017-09-20T21:14:19.533Z,80.53
2017-09-20T21:16:47.909Z,80.07
2017-09-20T21:19:16.286Z,24.05
2017-09-20T21:21:44.637Z,21.80
2017-09-20T21:24:12.281Z,26.12
2017-09-20T21:26:39.887Z,20.45
2017-09-20T21:29:08.234Z,25.48
2017-09-20T21:31:35.923Z,32.17
2017-09-20T21:34:04.298Z,24.75
2017-09-20T21:36:32.778Z,24.98
2017-09-20T21:39:01.130Z,22.40
2017-09-20T21:41:28.814Z,20.67
2017-09-20T21:43:57.265Z,20.98
2017-09-20T21:46:24.854Z,22.02
2017-09-20T21:48:53.230Z,19.70
2017-09-20T21:51:21.706Z,21.87
2017-09-20T21:53:50.050Z,23.73
2017-09-20T21:56:17.630Z,20.20
2017-09-20T21:58:45.233Z,21.92
2017-09-20T22:01:12.814Z,19.20
2017-09-20T22:03:40.413Z,27.08
2017-09-20T22:06:08.806Z,27.42
2017-09-20T22:08:37.180Z,19.30
2017-09-20T22:11:05.525Z,14.60
2017-09-20T22:13:33.125Z,13.40
2017-09-20T22:16:12.474Z,15.00
2017-09-20T22:18:51.982Z,15.45
2017-09-20T22:21:32.354Z,18.77
2017-09-20T22:24:12.762Z,17.70
2017-09-20T22:26:45.210Z,16.95
2017-09-20T22:29:12.811Z,12.37
